createdAt,value
2022-12-05T00:00:28.812Z,101901.16
2022-12-05T00:05:25.380Z,101906.31
2022-12-05T00:10:16.406Z,101907.91
2022-12-05T00:15:17.333Z,101916.63
2022-12-05T00:20:09.869Z,101910.47
2022-12-05T00:25:01.105Z,101916.72
2022-12-05T00:29:54.886Z,101896.44
2022-12-05T00:34:49.021Z,101909.59
2022-12-05T00:39:40.317Z,101909.84
2022-12-05T00:44:31.336Z,101889.91
2022-12-05T00:49:24.542Z,101904.09
2022-12-05T00:54:19.544Z,101906.75
2022-12-05T00:59:13.452Z,101896.56
2022-12-05T01:04:07.842Z,101899.09
2022-12-05T01:09:11.985Z,101897.75
2022-12-05T01:14:06.616Z,101904.75
2022-12-05T01:19:00.609Z,101903.28
2022-12-05T01:23:52.111Z,101878.03
2022-12-05T01:28:44.220Z,101890.59
2022-12-05T01:33:39.900Z,101904.31
2022-12-05T01:38:34.679Z,101895.78
2022-12-05T01:43:26.084Z,101905.41
2022-12-05T01:48:25.351Z,101913.41
2022-12-05T01:53:22.839Z,101896.88
2022-12-05T01:58:14.614Z,101910.16
2022-12-05T02:03:11.562Z,101914.78
2022-12-05T02:08:07.780Z,101901.94
2022-12-05T02:13:08.296Z,101915.03
2022-12-05T02:18:09.840Z,101927.06
2022-12-05T02:23:22.702Z,101910.06
2022-12-05T02:28:38.016Z,101909.28
2022-12-05T02:33:39.237Z,101903.22
2022-12-05T02:38:35.059Z,101898.44
2022-12-05T02:43:41.055Z,101912.31
2022-12-05T02:48:37.678Z,101920.06
2022-12-05T02:53:31.489Z,101920.13
2022-12-05T02:58:29.147Z,101924.53
2022-12-05T03:03:25.188Z,101921.09
2022-12-05T03:08:25.643Z,101917.56
2022-12-05T03:13:21.478Z,101920.94
2022-12-05T03:18:19.460Z,101921.97
2022-12-05T03:23:16.550Z,101931.47
2022-12-05T03:28:17.968Z,101929.91
2022-12-05T03:33:17.285Z,101923.91
2022-12-05T03:38:15.180Z,101934.19
2022-12-05T03:43:15.195Z,101931.66
2022-12-05T03:48:14.395Z,101942.00
2022-12-05T03:53:19.484Z,101922.22
2022-12-05T03:58:21.149Z,101935.31
2022-12-05T04:03:15.442Z,101924.78
2022-12-05T04:08:10.531Z,101926.34
2022-12-05T04:13:19.371Z,101944.97
2022-12-05T04:18:16.721Z,101939.69
2022-12-05T04:23:11.264Z,101936.09
2022-12-05T04:28:14.484Z,101949.28
2022-12-05T04:33:15.128Z,101935.47
2022-12-05T04:38:14.593Z,101956.94
2022-12-05T04:43:07.865Z,101951.91
2022-12-05T04:48:02.216Z,101949.97
2022-12-05T04:52:59.179Z,101947.59
2022-12-05T04:58:02.403Z,101942.63
2022-12-05T05:03:01.338Z,101943.50
2022-12-05T05:08:03.722Z,101943.44
2022-12-05T05:12:55.110Z,101945.38
2022-12-05T05:17:46.111Z,101945.50
2022-12-05T05:22:40.632Z,101954.97
2022-12-05T05:27:34.961Z,101895.25
2022-12-05T05:32:25.816Z,101957.72
2022-12-05T05:37:17.135Z,101961.16
2022-12-05T05:42:09.011Z,101965.38
2022-12-05T05:47:04.144Z,101965.38
2022-12-05T05:51:55.718Z,101966.25
2022-12-05T05:56:48.114Z,101963.72
2022-12-05T06:01:39.066Z,101963.88
2022-12-05T06:06:36.235Z,101970.81
2022-12-05T06:11:29.399Z,101975.13
2022-12-05T06:16:21.737Z,101979.34
2022-12-05T06:21:16.421Z,101975.13
2022-12-05T06:26:14.935Z,101972.50
2022-12-05T06:31:12.531Z,101976.19
2022-12-05T06:36:09.491Z,101961.34
2022-12-05T06:41:01.543Z,101974.72
2022-12-05T06:45:58.835Z,101984.22
2022-12-05T06:50:54.588Z,101987.66
2022-12-05T06:55:45.357Z,101986.72
2022-12-05T07:00:49.027Z,101984.47
2022-12-05T07:05:45.377Z,102002.38
2022-12-05T07:10:36.771Z,101992.94
2022-12-05T07:15:31.904Z,102003.47
2022-12-05T07:20:23.100Z,101998.19
2022-12-05T07:25:17.279Z,101998.19
2022-12-05T07:30:12.110Z,101999.47
2022-12-05T07:35:03.610Z,102009.78
2022-12-05T07:39:58.913Z,102009.78
2022-12-05T07:44:53.800Z,102015.22
2022-12-05T07:49:47.056Z,102013.38
2022-12-05T07:54:38.139Z,102025.69
2022-12-05T07:59:29.184Z,102017.91
2022-12-05T08:04:25.095Z,102029.34
2022-12-05T08:09:17.669Z,102022.63
2022-12-05T08:14:10.219Z,102035.56
2022-12-05T08:19:08.654Z,102035.47
2022-12-05T08:24:04.914Z,102041.56
2022-12-05T08:28:58.301Z,102041.94
2022-12-05T08:33:55.560Z,102040.41
2022-12-05T08:38:51.586Z,102042.91
2022-12-05T08:43:46.518Z,102044.81
2022-12-05T08:48:38.718Z,102054.38
2022-12-05T08:53:30.798Z,102062.28
2022-12-05T08:58:22.119Z,102056.47
2022-12-05T09:03:35.694Z,102060.78
2022-12-05T09:08:33.171Z,102071.16
2022-12-05T09:13:24.994Z,102051.25
2022-12-05T09:18:21.587Z,102059.09
2022-12-05T09:23:16.115Z,102064.50
2022-12-05T09:28:13.956Z,102069.78
2022-12-05T09:33:06.379Z,102066.34
2022-12-05T09:38:00.167Z,102078.88
2022-12-05T09:43:05.134Z,102084.16
2022-12-05T09:48:10.312Z,102082.53
2022-12-05T09:53:28.436Z,102089.56
2022-12-05T09:58:31.613Z,102106.97
2022-12-05T10:03:32.591Z,102099.31
2022-12-05T10:08:36.634Z,102101.13
2022-12-05T10:13:49.513Z,102100.34
2022-12-05T10:18:46.316Z,102097.03
2022-12-05T10:23:58.368Z,102100.53
2022-12-05T10:29:00.020Z,102099.03
2022-12-05T10:33:55.555Z,102087.97
2022-12-05T10:38:50.518Z,102086.06
2022-12-05T10:43:47.475Z,102095.66
2022-12-05T10:48:41.238Z,102096.69
2022-12-05T10:53:39.610Z,102094.19
2022-12-05T10:58:33.838Z,102094.31
2022-12-05T11:03:33.066Z,102090.25
2022-12-05T11:08:56.125Z,102083.44
2022-12-05T11:13:56.985Z,102075.16
2022-12-05T11:18:50.727Z,102072.72
2022-12-05T11:23:43.424Z,102079.03
2022-12-05T11:28:40.775Z,102086.84
2022-12-05T11:33:36.262Z,102086.91
2022-12-05T11:38:33.028Z,102084.31
2022-12-05T11:43:48.722Z,102087.09
2022-12-05T11:48:55.107Z,102082.84
2022-12-05T11:55:02.823Z,102080.09
2022-12-05T12:00:07.690Z,102086.91
2022-12-05T12:05:21.954Z,102080.94
2022-12-05T12:10:26.951Z,102086.13
2022-12-05T12:15:36.846Z,102088.97
2022-12-05T12:20:59.729Z,102089.13
2022-12-05T12:26:07.591Z,102082.09
2022-12-05T12:31:14.892Z,102077.06
2022-12-05T12:36:20.006Z,102080.78
2022-12-05T12:41:27.560Z,102068.75
2022-12-05T12:46:43.793Z,102072.56
2022-12-05T12:51:38.646Z,102072.63
2022-12-05T12:56:44.628Z,102072.69
2022-12-05T13:01:43.044Z,102071.09
2022-12-05T13:06:49.329Z,102075.47
2022-12-05T13:11:44.809Z,102072.19
2022-12-05T13:16:46.162Z,102063.50
2022-12-05T13:21:43.618Z,102070.53
2022-12-05T13:26:37.376Z,102070.53
2022-12-05T13:31:41.022Z,102058.38
2022-12-05T13:36:44.398Z,102057.50
2022-12-05T13:42:02.299Z,102066.41
2022-12-05T13:46:54.256Z,102066.50
2022-12-05T13:51:48.476Z,102064.59
2022-12-05T13:57:04.385Z,102064.88
2022-12-05T14:02:01.324Z,102059.69
2022-12-05T14:07:01.396Z,102070.16
2022-12-05T14:12:22.451Z,102074.38
2022-12-05T14:17:17.666Z,102076.94
2022-12-05T14:22:24.673Z,102074.25
2022-12-05T14:27:22.540Z,102072.34
2022-12-05T14:32:31.280Z,102073.31
2022-12-05T14:37:30.758Z,102083.66
2022-12-05T14:42:40.389Z,102086.16
2022-12-05T14:47:38.363Z,102087.03
2022-12-05T14:52:34.585Z,102087.03
2022-12-05T14:57:29.724Z,102065.97
2022-12-05T15:02:27.667Z,102091.28
2022-12-05T15:07:25.709Z,102094.78
2022-12-05T15:12:23.824Z,102094.72
2022-12-05T15:17:21.760Z,102099.75
2022-12-05T15:22:21.268Z,102110.16
2022-12-05T15:27:19.635Z,102105.84
2022-12-05T15:32:22.281Z,102114.34
2022-12-05T15:37:19.092Z,102118.66
2022-12-05T15:42:24.816Z,102119.47
2022-12-05T15:47:31.036Z,102113.38
2022-12-05T15:52:34.463Z,102126.13
2022-12-05T15:57:37.077Z,102131.34
2022-12-05T16:02:39.278Z,102133.91
2022-12-05T16:07:39.145Z,102120.13
2022-12-05T16:12:39.277Z,102125.25
2022-12-05T16:17:32.399Z,102117.28
2022-12-05T16:22:29.679Z,102114.66
2022-12-05T16:27:25.808Z,102107.56
2022-12-05T16:32:27.616Z,102124.31
2022-12-05T16:37:27.617Z,102119.03
2022-12-05T16:42:28.124Z,102133.63
2022-12-05T16:47:28.501Z,102137.00
2022-12-05T16:52:21.281Z,102137.88
2022-12-05T16:57:15.523Z,102142.13
2022-12-05T17:02:14.789Z,102142.94
2022-12-05T17:07:10.100Z,102140.22
2022-12-05T17:12:07.186Z,102139.44
2022-12-05T17:17:03.201Z,102142.13
2022-12-05T17:21:57.142Z,102135.88
2022-12-05T17:26:56.731Z,102154.13
2022-12-05T17:31:50.990Z,102159.41
2022-12-05T17:36:43.398Z,102154.28
2022-12-05T17:41:35.094Z,102143.97
2022-12-05T17:46:30.677Z,102149.16
2022-12-05T17:51:26.012Z,102156.97
2022-12-05T17:56:19.814Z,102151.03
2022-12-05T18:01:15.494Z,102153.59
2022-12-05T18:06:10.691Z,102151.72
2022-12-05T18:11:01.294Z,102155.28
2022-12-05T18:15:52.778Z,102155.97
2022-12-05T18:20:44.699Z,102159.25
2022-12-05T18:25:38.257Z,102162.97
2022-12-05T18:30:29.426Z,102179.34
2022-12-05T18:35:40.803Z,102167.31
2022-12-05T18:40:32.796Z,102180.28
2022-12-05T18:45:26.492Z,102181.97
2022-12-05T18:50:17.989Z,102180.22
2022-12-05T18:55:17.126Z,102181.91
2022-12-05T19:00:16.968Z,102197.34
2022-12-05T19:05:11.455Z,102195.59
2022-12-05T19:10:04.296Z,102187.69
2022-12-05T19:15:01.047Z,102194.72
2022-12-05T19:19:54.284Z,102198.16
2022-12-05T19:24:50.990Z,102207.59
2022-12-05T19:29:43.156Z,102226.38
2022-12-05T19:34:34.659Z,102218.66
2022-12-05T19:39:30.340Z,102221.81
2022-12-05T19:44:26.618Z,102215.88
2022-12-05T19:49:26.269Z,102214.19
2022-12-05T19:54:22.636Z,102216.03
2022-12-05T19:59:17.868Z,102212.56
2022-12-05T20:04:14.871Z,102217.69
2022-12-05T20:09:11.162Z,102229.56
2022-12-05T20:14:04.931Z,102228.75
2022-12-05T20:19:01.535Z,102222.53
2022-12-05T20:23:59.001Z,102219.25
2022-12-05T20:28:50.677Z,102208.78
2022-12-05T20:33:42.244Z,102216.75
2022-12-05T20:38:35.948Z,102211.50
2022-12-05T20:43:36.210Z,102203.66
2022-12-05T20:48:29.600Z,102212.50
2022-12-05T20:53:22.838Z,102213.47
2022-12-05T20:58:14.079Z,102211.63
2022-12-05T21:03:15.620Z,102211.69
2022-12-05T21:08:08.909Z,102210.81
2022-12-05T21:13:01.542Z,102211.69
2022-12-05T21:17:53.103Z,102211.69
2022-12-05T21:22:47.986Z,102220.50
2022-12-05T21:27:40.483Z,102222.25
2022-12-05T21:32:35.196Z,102214.47
2022-12-05T21:37:27.496Z,102187.63
2022-12-05T21:42:21.210Z,102204.44
2022-12-05T21:47:12.447Z,102215.72
2022-12-05T21:52:06.680Z,102215.72
2022-12-05T21:56:57.836Z,102211.97
2022-12-05T22:01:54.696Z,102223.28
2022-12-05T22:06:46.674Z,102218.16
2022-12-05T22:11:37.775Z,102215.66
2022-12-05T22:16:32.736Z,102224.09
2022-12-05T22:21:27.237Z,102225.91
2022-12-05T22:26:20.650Z,102226.78
2022-12-05T22:31:19.167Z,102235.22
2022-12-05T22:36:12.926Z,102231.84
2022-12-05T22:41:08.625Z,102224.91
2022-12-05T22:46:00.518Z,102235.28
2022-12-05T22:50:53.173Z,102232.66
2022-12-05T22:55:43.371Z,102228.41
2022-12-05T23:00:38.551Z,102223.28
2022-12-05T23:05:31.842Z,102221.59
2022-12-05T23:10:26.332Z,102216.09
2022-12-05T23:15:18.139Z,102216.16
2022-12-05T23:20:12.579Z,102217.22
2022-12-05T23:25:05.792Z,102223.13
2022-12-05T23:30:02.305Z,102220.66
2022-12-05T23:34:53.943Z,102223.28
2022-12-05T23:39:48.549Z,102212.78
2022-12-05T23:44:46.368Z,102221.66
2022-12-05T23:49:38.628Z,102218.22
2022-12-05T23:54:32.149Z,102214.78
2022-12-05T23:59:27.763Z,102207.00
